モンテレー の空港の天気 - METARとTAF

ヘネラル・マリアノ・エソコベド国際空港 ( MMMY / MTY ) - メキシコ ヌエボ・レオン州モンテレー
飛行場実況気象(Metar)
観測時間08/04 12:40 CDT (08/04 17:40 UTC)
風向・風速東南東 3m/s
視程10km以上
天気現象
全天の4割程度の雲 雲底高度 910m
気温30℃
湿度59%
気圧1016hPa
METARMMMY 041740Z 11006KT 8SM SCT030 30/21 A3001 RMK SLP/// 5//// 9// 8/100 ISOL AC
過去の天気等 Google飛行場航空写真 Wunderground天気予報

過去48時間のMETAR

飛行場予報(TAF)
発表時間: 8/04 12:08 CDT (8/04 17:08 UTC)
予報対象時間: 4日13時 CDT ~ 5日19時 CDT
風向・風速東 5m/s
視程10km以上
全天の4割程度の雲 雲底高度 1070m
全天の8割程度の雲 雲底高度 2440m
4日17時 CDT から 確率 40% で
視程10km以上
天気現象
全天の8割程度の積乱雲 雲底高度 910m
4日23時 CDT から
風向・風速静穏
視程10km以上
全天の8割程度の雲 雲底高度 2440m
5日0時 CDT ~ 5日1時 CDT に徐々に
なし
5日6時 CDT ~ 5日10時 CDT に一時的に
視程4830m
天気現象もや
5日11時 CDT から
風向・風速東南東 4m/s
視程10km以上
なし
5日14時 CDT から
風向・風速東南東 6m/s
視程10km以上
全天の4割程度の雲 雲底高度 1220m
全天の4割程度の雲 雲底高度 2740m
5日17時 CDT ~ 5日18時 CDT に徐々に
視程10km以上
天気現象周辺で 雨
全天の4割程度の積乱雲 雲底高度 1220m
全天の8割程度の雲 雲底高度 2740m
全天の8割程度の雲 雲底高度 6100m
TAF MMMY 041708Z 0418/0524 10010KT P6SM SCT035 BKN080 TX35/0422Z TN22/0511Z
PROB40 0422/0502 6SM RA BKN030CB
FM050400 00000KT P6SM BKN080
BECMG 0505/0506 SKC
TEMPO 0511/0515 3SM BR
FM051600 12008KT P6SM SKC
FM051900 12012KT P6SM SCT040 SCT090
BECMG 0522/0523 P6SM VC RA SCT040CB BKN090 BKN200